Time;durP1;ratioP1;P1;durP2;ratioP2;P2;SDS_P1;SDS_P2;PMS_P1;PMS_P2;Temp;Humidity;BMP_temperature;BMP_pressure;BME280_temperature;BME280_humidity;BME280_pressure;Samples;Min_cycle;Max_cycle;Signal;HPM_P1;HPM_P2
2023/05/02 00:04:40;;;;;;;2.92;2.40;;;;;;;9.91;100.00;98268.88;15307172;19;20007;-79
2023/05/02 00:10:05;;;;;;;3.78;2.30;;;;;;;9.80;100.00;98275.38;15302921;19;20039;-78
2023/05/02 00:15:33;;;;;;;2.60;2.40;;;;;;;9.73;100.00;98273.50;15305378;19;20007;-79
2023/05/02 00:20:58;;;;;;;3.30;2.42;;;;;;;9.66;100.00;98273.28;15308220;19;20015;-79
2023/05/02 00:26:24;;;;;;;2.50;2.30;;;;;;;9.62;100.00;98271.91;15300112;19;20024;-78
2023/05/02 00:31:58;;;;;;;2.63;2.42;;;;;;;9.54;100.00;98273.56;15289033;19;20019;-78
2023/05/02 00:37:23;;;;;;;2.80;2.50;;;;;;;9.43;100.00;98273.81;15289495;19;20014;-79
2023/05/02 00:42:47;;;;;;;2.90;2.38;;;;;;;9.40;100.00;98282.19;15291058;19;20018;-78
2023/05/02 00:48:16;;;;;;;3.67;2.55;;;;;;;9.31;100.00;98273.22;15289666;19;20018;-77
2023/05/02 00:53:42;;;;;;;2.72;2.45;;;;;;;9.28;100.00;98275.38;15293339;19;20006;-77
2023/05/02 00:59:08;;;;;;;3.53;2.78;;;;;;;9.21;100.00;98275.16;15293969;19;20014;-78
2023/05/02 01:04:48;;;;;;;4.93;2.50;;;;;;;9.14;100.00;98258.81;15288653;19;20040;-79
2023/05/02 01:10:23;;;;;;;2.72;2.35;;;;;;;9.13;100.00;98269.72;15293564;19;20078;-77
2023/05/02 01:15:50;;;;;;;4.15;2.47;;;;;;;9.05;100.00;98274.03;15290092;19;20082;-78
2023/05/02 01:21:18;;;;;;;2.38;2.17;;;;;;;9.03;100.00;98276.03;15293870;19;20070;-78
2023/05/02 01:26:54;;;;;;;2.88;2.45;;;;;;;8.90;100.00;98292.53;15330508;19;20019;-81
2023/05/02 01:32:32;;;;;;;3.72;2.67;;;;;;;8.88;100.00;98291.00;15312684;19;20021;-77
2023/05/02 01:38:00;;;;;;;4.63;2.50;;;;;;;8.81;100.00;98285.41;15275511;19;20010;-79
2023/05/02 01:43:29;;;;;;;3.40;2.70;;;;;;;8.70;100.00;98302.56;15288562;19;20091;-81
2023/05/02 01:48:59;;;;;;;3.13;2.70;;;;;;;8.73;100.00;98310.34;15286187;19;20393;-78
2023/05/02 01:54:25;;;;;;;3.58;2.53;;;;;;;8.74;100.00;98306.66;15292446;19;20010;-80
2023/05/02 01:59:59;;;;;;;6.45;2.40;;;;;;;8.76;100.00;98310.03;15294425;19;20028;-80
2023/05/02 02:05:29;;;;;;;2.72;2.30;;;;;;;8.79;100.00;98308.88;15290514;19;20040;-79
2023/05/02 02:11:00;;;;;;;3.15;2.40;;;;;;;8.77;100.00;98321.59;15289019;19;20520;-79
2023/05/02 02:16:30;;;;;;;2.50;2.30;;;;;;;8.73;100.00;98331.00;15287537;19;20019;-80
2023/05/02 02:21:59;;;;;;;2.85;2.58;;;;;;;8.74;100.00;98332.69;15291749;19;20406;-79
2023/05/02 02:27:30;;;;;;;2.95;2.40;;;;;;;8.75;100.00;98334.38;15285168;19;20097;-80
2023/05/02 02:32:55;;;;;;;2.50;2.30;;;;;;;8.77;100.00;98343.09;15288730;19;20021;-78
2023/05/02 02:38:32;;;;;;;4.22;2.50;;;;;;;8.79;100.00;98343.81;15290685;19;20030;-80
2023/05/02 02:44:05;;;;;;;3.33;2.30;;;;;;;8.78;100.00;98348.34;15284632;19;20018;-80
2023/05/02 02:49:41;;;;;;;2.22;2.03;;;;;;;8.78;100.00;98350.16;15280809;19;20014;-78
2023/05/02 02:55:14;;;;;;;3.10;2.60;;;;;;;8.79;100.00;98373.34;15281807;19;20018;-79
2023/05/02 03:00:41;;;;;;;3.13;2.30;;;;;;;8.77;100.00;98372.66;15290796;19;20074;-78
2023/05/02 03:06:08;;;;;;;2.45;2.25;;;;;;;8.76;100.00;98379.03;15280915;19;20010;-78
2023/05/02 03:11:37;;;;;;;3.72;2.10;;;;;;;8.77;100.00;98370.81;15277300;19;20019;-78
2023/05/02 03:17:03;;;;;;;3.88;2.40;;;;;;;8.76;100.00;98390.63;15279397;19;20014;-78
2023/05/02 03:22:28;;;;;;;3.40;2.42;;;;;;;8.64;100.00;98381.91;15299146;19;20078;-81
2023/05/02 03:27:55;;;;;;;3.03;2.38;;;;;;;8.63;100.00;98388.31;15295831;19;20055;-79
2023/05/02 03:33:22;;;;;;;2.30;2.10;;;;;;;8.58;100.00;98404.00;15298050;19;20006;-79
2023/05/02 03:38:48;;;;;;;4.35;2.50;;;;;;;8.60;100.00;98412.75;15300864;19;20366;-77
2023/05/02 03:44:16;;;;;;;4.50;2.60;;;;;;;8.58;100.00;98414.75;15312542;19;20010;-79
2023/05/02 03:49:41;;;;;;;3.70;2.53;;;;;;;8.64;100.00;98418.69;15326549;19;20021;-79
2023/05/02 03:55:08;;;;;;;2.50;2.30;;;;;;;8.64;100.00;98419.50;15296811;19;20011;-79
2023/05/02 04:00:37;;;;;;;3.22;2.20;;;;;;;8.67;100.00;98433.63;15300998;19;20019;-79
2023/05/02 04:06:04;;;;;;;2.63;2.42;;;;;;;8.64;100.00;98441.00;15295675;19;20010;-78
2023/05/02 04:11:34;;;;;;;3.50;2.42;;;;;;;8.63;100.00;98450.06;15315284;19;20018;-79
2023/05/02 04:17:05;;;;;;;2.92;2.40;;;;;;;8.62;100.00;98453.75;15335748;19;20007;-79
2023/05/02 04:22:32;;;;;;;3.17;2.45;;;;;;;8.66;100.00;98454.28;15339115;19;20014;-78
2023/05/02 04:27:56;;;;;;;4.13;2.45;;;;;;;8.68;100.00;98465.75;15295290;19;20425;-76
2023/05/02 04:33:24;;;;;;;5.15;2.60;;;;;;;8.73;100.00;98470.66;15290965;19;20028;-80
2023/05/02 04:38:49;;;;;;;2.92;2.50;;;;;;;8.76;100.00;98476.56;15292558;19;20345;-78
2023/05/02 04:44:16;;;;;;;3.92;3.10;;;;;;;8.81;100.00;98492.25;15294310;19;20094;-77
2023/05/02 04:49:44;;;;;;;2.55;2.20;;;;;;;8.86;100.00;98502.53;15297350;19;20016;-80
2023/05/02 04:55:10;;;;;;;2.47;2.28;;;;;;;8.94;100.00;98506.19;15319608;19;20007;-80
2023/05/02 05:00:36;;;;;;;3.35;2.38;;;;;;;9.02;100.00;98520.72;15329414;19;20366;-79
2023/05/02 05:06:04;;;;;;;3.92;2.40;;;;;;;9.07;100.00;98531.88;15298454;19;20440;-77
2023/05/02 05:11:31;;;;;;;3.08;2.28;;;;;;;9.12;100.00;98534.94;15303184;19;20018;-77
2023/05/02 05:16:57;;;;;;;2.90;2.40;;;;;;;9.20;100.00;98545.81;15301692;19;20029;-77
2023/05/02 05:22:24;;;;;;;3.17;2.38;;;;;;;9.30;100.00;98558.34;15300199;19;20366;-79
2023/05/02 05:27:51;;;;;;;2.70;2.22;;;;;;;9.36;100.00;98565.81;15303783;19;20011;-79
2023/05/02 05:33:19;;;;;;;3.03;2.20;;;;;;;9.46;100.00;98580.06;15302702;19;20059;-78
2023/05/02 05:38:48;;;;;;;2.70;2.30;;;;;;;9.55;100.00;98586.38;15304246;19;20029;-79
2023/05/02 05:44:16;;;;;;;2.95;2.30;;;;;;;9.60;100.00;98593.97;15298268;19;20021;-78
2023/05/02 05:49:41;;;;;;;2.90;2.30;;;;;;;9.66;100.00;98593.38;15294991;19;20366;-78
2023/05/02 05:55:12;;;;;;;2.60;2.30;;;;;;;9.71;100.00;98604.53;15290728;19;20086;-78
2023/05/02 06:00:37;;;;;;;2.58;2.20;;;;;;;9.77;100.00;98608.47;15302834;19;20540;-78
2023/05/02 06:06:02;;;;;;;2.50;2.30;;;;;;;9.83;100.00;98616.78;15290366;19;20498;-77
2023/05/02 06:11:29;;;;;;;3.33;2.10;;;;;;;9.90;100.00;98622.41;15299458;19;20492;-78
2023/05/02 06:16:55;;;;;;;2.50;2.30;;;;;;;9.90;100.00;98629.63;15291927;19;20018;-78
2023/05/02 06:22:20;;;;;;;2.47;2.22;;;;;;;9.87;100.00;98650.47;15293241;19;20015;-77
2023/05/02 06:27:47;;;;;;;2.80;2.28;;;;;;;9.92;100.00;98638.41;15296207;19;20027;-77
2023/05/02 06:33:12;;;;;;;3.25;2.40;;;;;;;10.01;100.00;98650.94;15305667;19;20027;-79
2023/05/02 06:38:36;;;;;;;2.58;2.20;;;;;;;10.08;100.00;98665.47;15294526;19;20010;-78
2023/05/02 06:44:03;;;;;;;3.55;2.40;;;;;;;10.19;100.00;98677.88;15303676;19;20031;-77
2023/05/02 06:49:28;;;;;;;2.47;2.28;;;;;;;10.26;100.00;98678.97;15303261;19;20019;-78
2023/05/02 06:54:53;;;;;;;3.08;2.30;;;;;;;10.40;100.00;98687.53;15302808;19;21084;-81
2023/05/02 07:00:22;;;;;;;4.47;2.47;;;;;;;10.53;100.00;98695.22;15299054;19;20011;-78
2023/05/02 07:05:47;;;;;;;4.00;2.30;;;;;;;10.60;100.00;98693.63;15297777;19;20017;-77
2023/05/02 07:11:11;;;;;;;3.13;2.40;;;;;;;10.74;100.00;98703.88;15293070;19;20283;-78
2023/05/02 07:16:38;;;;;;;3.58;2.30;;;;;;;10.89;100.00;98700.59;15285754;19;20044;-77
2023/05/02 07:22:03;;;;;;;3.47;2.30;;;;;;;10.92;100.00;98703.84;15292433;19;20018;-79
2023/05/02 07:27:28;;;;;;;2.70;2.10;;;;;;;11.07;100.00;98709.50;15296873;19;20027;-77
2023/05/02 07:33:02;;;;;;;2.33;2.05;;;;;;;11.25;100.00;98714.84;15279543;19;20027;-77
2023/05/02 07:38:29;;;;;;;2.55;2.13;;;;;;;11.40;100.00;98723.19;15286471;19;20018;-77
2023/05/02 07:43:53;;;;;;;3.08;1.90;;;;;;;11.52;100.00;98718.41;15275932;19;20010;-77
2023/05/02 07:49:21;;;;;;;2.20;1.70;;;;;;;11.70;100.00;98721.00;15279363;19;20006;-78
2023/05/02 07:54:45;;;;;;;3.22;1.73;;;;;;;11.82;100.00;98715.31;15275009;19;20018;-78
2023/05/02 08:00:11;;;;;;;3.60;1.80;;;;;;;11.79;100.00;98729.97;15282816;19;20754;-76
2023/05/02 08:05:41;;;;;;;2.00;1.70;;;;;;;11.91;100.00;98730.56;15270685;19;20087;-77
2023/05/02 08:11:06;;;;;;;3.25;1.92;;;;;;;11.95;100.00;98739.16;15291703;19;20021;-78
2023/05/02 08:16:30;;;;;;;2.47;1.73;;;;;;;12.02;100.00;98756.44;15293255;19;20087;-77
2023/05/02 08:21:58;;;;;;;3.05;1.90;;;;;;;12.01;100.00;98755.59;15276460;19;20003;-77
2023/05/02 08:27:22;;;;;;;2.03;1.48;;;;;;;11.97;100.00;98756.88;15296621;19;20014;-77
2023/05/02 08:32:54;;;;;;;3.20;1.75;;;;;;;11.90;100.00;98763.97;15344011;19;20007;-76
2023/05/02 08:38:22;;;;;;;2.28;1.85;;;;;;;11.85;100.00;98774.38;15317361;19;20018;-76
2023/05/02 08:43:47;;;;;;;3.05;2.10;;;;;;;11.80;100.00;98774.03;15297475;19;20021;-78
2023/05/02 08:49:13;;;;;;;3.08;2.00;;;;;;;11.75;100.00;98776.34;15298084;19;20007;-79
2023/05/02 08:54:40;;;;;;;3.38;2.25;;;;;;;11.72;100.00;98785.63;15299671;19;20036;-79
2023/05/02 09:00:06;;;;;;;3.63;1.92;;;;;;;11.75;100.00;98788.00;15311837;19;20022;-78
2023/05/02 09:05:33;;;;;;;3.42;2.10;;;;;;;11.83;100.00;98788.06;15302703;19;20021;-80
2023/05/02 09:11:00;;;;;;;3.53;2.38;;;;;;;12.01;100.00;98804.22;15295517;19;20006;-79
2023/05/02 09:16:28;;;;;;;7.65;3.08;;;;;;;12.09;100.00;98806.09;15290096;19;20010;-78
2023/05/02 09:21:54;;;;;;;3.83;2.80;;;;;;;12.15;100.00;98810.84;15299040;19;20072;-79
2023/05/02 09:27:21;;;;;;;4.38;3.20;;;;;;;12.28;100.00;98820.34;15288224;19;20081;-79
2023/05/02 09:32:56;;;;;;;6.57;3.33;;;;;;;12.30;100.00;98816.47;15288098;19;20079;-78
2023/05/02 09:38:22;;;;;;;3.63;3.17;;;;;;;12.31;100.00;98812.78;15289529;19;20027;-77
2023/05/02 09:43:50;;;;;;;6.03;3.60;;;;;;;12.30;100.00;98821.03;15284465;19;20025;-77
2023/05/02 09:49:17;;;;;;;7.63;3.80;;;;;;;12.26;100.00;98825.94;15282878;19;20364;-78
2023/05/02 09:54:46;;;;;;;3.88;3.35;;;;;;;12.42;100.00;98835.09;15285105;19;20864;-76
2023/05/02 10:00:18;;;;;;;4.38;3.58;;;;;;;12.60;100.00;98835.84;15291883;19;20018;-80
2023/05/02 10:05:44;;;;;;;5.85;3.70;;;;;;;12.83;100.00;98837.94;15290283;19;20068;-78
2023/05/02 10:11:11;;;;;;;4.13;3.50;;;;;;;13.09;100.00;98832.41;15289680;19;20094;-79
2023/05/02 10:16:40;;;;;;;5.88;3.53;;;;;;;13.30;100.00;98830.22;15285771;19;20031;-79
2023/05/02 10:22:06;;;;;;;4.28;3.50;;;;;;;13.58;100.00;98832.63;15292275;19;20687;-80
2023/05/02 10:27:30;;;;;;;4.25;3.45;;;;;;;13.71;100.00;98825.66;15288760;19;20010;-79
2023/05/02 10:39:04;;;;;;;4.20;3.10;;;;;;;14.11;100.00;98823.00;15287945;19;20501;-78
2023/05/02 10:44:40;;;;;;;3.50;2.92;;;;;;;14.33;100.00;98823.28;15291875;19;20031;-78
2023/05/02 10:50:09;;;;;;;3.05;2.75;;;;;;;14.62;100.00;98809.06;15298788;19;20090;-78
2023/05/02 10:55:33;;;;;;;3.95;2.85;;;;;;;14.79;100.00;98807.13;15292109;19;20018;-78
2023/05/02 11:01:38;;;;;;;3.55;2.50;;;;;;;15.16;100.00;98801.13;15300673;19;20055;-79
2023/05/02 11:07:26;;;;;;;5.13;2.30;;;;;;;15.24;100.00;98806.47;15290328;19;20074;-79
2023/05/02 11:12:52;;;;;;;2.80;2.60;;;;;;;15.21;100.00;98798.72;15291791;19;20015;-78
2023/05/02 11:18:20;;;;;;;3.05;2.08;;;;;;;15.13;100.00;98801.47;15286182;19;20070;-78
2023/05/02 11:23:45;;;;;;;2.55;2.20;;;;;;;15.02;100.00;98809.03;15294649;19;20033;-78
2023/05/02 11:29:09;;;;;;;3.53;2.30;;;;;;;14.72;100.00;98808.03;15339619;19;20019;-78
2023/05/02 11:34:40;;;;;;;4.20;2.42;;;;;;;14.84;100.00;98801.16;15343896;19;20014;-78
2023/05/02 11:39:59;;;;;;;2.50;2.30;;;;;;;15.25;100.00;98808.16;15337655;19;20067;-77
2023/05/02 11:45:24;;;;;;;2.42;2.22;;;;;;;15.34;100.00;98798.94;15298248;19;20006;-77
2023/05/02 11:50:50;;;;;;;2.25;2.00;;;;;;;15.63;100.00;98805.47;15296819;19;20157;-77
2023/05/02 11:56:18;;;;;;;2.72;2.00;;;;;;;15.44;100.00;98806.00;15296697;19;20295;-77
2023/05/02 12:01:42;;;;;;;2.25;1.80;;;;;;;15.04;100.00;98828.69;15290736;19;20022;-52
2023/05/02 12:07:07;;;;;;;3.08;1.00;;;;;;;13.18;100.00;98856.75;15278211;19;20025;-51
2023/05/02 12:12:35;;;;;;;0.90;0.90;;;;;;;12.74;100.00;98877.63;15280429;19;20042;-52
2023/05/02 12:18:00;;;;;;;0.60;0.60;;;;;;;12.15;100.00;98870.28;15279567;19;20027;-47
2023/05/02 12:23:28;;;;;;;0.82;0.68;;;;;;;11.81;100.00;98889.09;15273119;19;20449;-55
2023/05/02 12:28:59;;;;;;;0.63;0.63;;;;;;;11.52;100.00;98906.41;15279846;19;20344;-48
2023/05/02 12:34:41;;;;;;;0.50;0.50;;;;;;;11.44;100.00;98917.16;15273980;19;20042;-52
2023/05/02 12:40:24;;;;;;;0.88;0.47;;;;;;;11.56;100.00;98929.41;15280611;19;20511;-52
2023/05/02 12:46:11;;;;;;;0.50;0.50;;;;;;;11.66;100.00;98934.69;15279504;19;20018;-48
2023/05/02 12:51:38;;;;;;;0.60;0.50;;;;;;;11.71;100.00;98932.38;15274779;19;20041;-54
2023/05/02 12:57:03;;;;;;;0.45;0.40;;;;;;;12.06;100.00;98935.19;15277392;19;20020;-53
2023/05/02 13:02:39;;;;;;;0.38;0.38;;;;;;;12.41;100.00;98949.59;15274855;19;20014;-55
2023/05/02 13:08:05;;;;;;;0.40;0.40;;;;;;;12.34;100.00;98949.41;15279105;19;20029;-48
2023/05/02 13:13:29;;;;;;;0.60;0.40;;;;;;;12.31;100.00;98950.56;15274182;19;20089;-48
2023/05/02 13:18:58;;;;;;;1.75;0.50;;;;;;;12.46;100.00;98955.38;15278190;19;20082;-50
2023/05/02 13:24:23;;;;;;;0.85;0.40;;;;;;;12.37;100.00;98953.63;15271927;19;20038;-49
2023/05/02 13:29:49;;;;;;;0.40;0.40;;;;;;;12.42;100.00;98957.56;15279984;19;20086;-53
2023/05/02 13:35:19;;;;;;;0.50;0.50;;;;;;;12.05;100.00;98969.47;15272620;19;20021;-52
2023/05/02 13:40:45;;;;;;;0.73;0.60;;;;;;;12.44;100.00;98963.66;15276484;19;20017;-53
2023/05/02 13:46:10;;;;;;;0.85;0.85;;;;;;;13.02;100.00;98963.06;15272851;19;20015;-51
2023/05/02 13:51:38;;;;;;;1.15;0.70;;;;;;;12.95;100.00;98979.94;15275491;19;20458;-52
2023/05/02 13:57:03;;;;;;;2.50;1.05;;;;;;;12.30;100.00;98992.09;15270566;19;20351;-49
2023/05/02 14:02:29;;;;;;;1.45;1.00;;;;;;;12.36;100.00;99001.41;15271186;19;20357;-50
2023/05/02 14:07:56;;;;;;;2.38;0.90;;;;;;;12.39;100.00;99005.69;15269863;19;20018;-52
2023/05/02 14:13:21;;;;;;;1.90;1.08;;;;;;;12.19;100.00;99005.84;15267293;19;20503;-50
2023/05/02 14:18:46;;;;;;;2.90;1.30;;;;;;;12.06;100.00;99000.88;15273313;19;20352;-51
2023/05/02 14:24:15;;;;;;;2.55;1.48;;;;;;;11.94;100.00;99012.88;15269084;19;20022;-55
2023/05/02 14:29:39;;;;;;;2.17;1.58;;;;;;;11.93;100.00;99000.38;15269714;19;20258;-51
2023/05/02 14:35:04;;;;;;;4.75;1.90;;;;;;;11.79;100.00;99004.50;15266045;19;20035;-48
2023/05/02 14:40:31;;;;;;;5.45;2.30;;;;;;;11.90;100.00;99012.34;15267095;19;20014;-48
2023/05/02 14:45:58;;;;;;;4.82;2.70;;;;;;;11.65;100.00;99008.56;15267514;19;20018;-50
2023/05/02 14:51:22;;;;;;;7.50;3.33;;;;;;;11.45;100.00;99034.84;15266547;19;20018;-50
2023/05/02 14:56:51;;;;;;;5.13;3.00;;;;;;;11.20;100.00;99042.66;15269853;19;20034;-48
2023/05/02 15:02:15;;;;;;;5.80;3.25;;;;;;;10.97;100.00;99047.59;15265188;19;20078;-47
2023/05/02 15:07:42;;;;;;;6.22;3.50;;;;;;;10.99;100.00;99041.06;15267575;19;20340;-52
2023/05/02 15:13:09;;;;;;;6.50;3.28;;;;;;;10.97;100.00;99043.06;15268724;19;20022;-48
2023/05/02 15:18:36;;;;;;;6.00;3.20;;;;;;;10.82;100.00;99044.53;15286871;19;20365;-52
2023/05/02 15:24:01;;;;;;;3.95;2.95;;;;;;;10.95;100.00;99055.84;15280497;19;20074;-52
2023/05/02 15:29:29;;;;;;;6.40;3.25;;;;;;;10.89;100.00;99056.41;15285392;19;20037;-49
2023/05/02 15:34:53;;;;;;;5.20;3.15;;;;;;;10.96;100.00;99065.63;15276287;19;20090;-54
2023/05/02 15:40:19;;;;;;;6.38;3.00;;;;;;;10.94;100.00;99070.31;15283240;19;20017;-48
2023/05/02 15:45:46;;;;;;;6.32;2.95;;;;;;;10.88;100.00;99065.50;15282786;19;20016;-51
2023/05/02 15:51:12;;;;;;;4.95;2.67;;;;;;;11.02;100.00;99072.28;15281708;19;20038;-49
2023/05/02 15:56:37;;;;;;;8.80;3.10;;;;;;;11.05;100.00;99071.97;15283505;19;20443;-52
2023/05/02 16:02:06;;;;;;;5.88;2.90;;;;;;;11.02;100.00;99072.28;15279715;19;20504;-53
2023/05/02 16:07:30;;;;;;;8.20;3.25;;;;;;;11.00;100.00;99082.34;15278270;19;20054;-54
2023/05/02 16:12:48;;;;;;;7.72;3.50;;;;;;;10.97;100.00;99091.59;15276244;19;20526;-54
2023/05/02 16:18:16;;;;;;;7.70;3.30;;;;;;;10.89;100.00;99099.53;15279278;19;20380;-54
2023/05/02 16:23:40;;;;;;;9.65;3.70;;;;;;;10.87;100.00;99106.94;15277537;19;20011;-48
2023/05/02 16:29:05;;;;;;;7.47;3.50;;;;;;;10.91;100.00;99113.72;15281070;19;20582;-55
2023/05/02 16:34:33;;;;;;;7.28;3.30;;;;;;;10.95;100.00;99115.16;15275427;19;20018;-47
2023/05/02 16:40:00;;;;;;;6.50;3.33;;;;;;;10.82;100.00;99115.44;15276164;19;20017;-50
2023/05/02 16:45:26;;;;;;;7.40;3.20;;;;;;;10.61;100.00;99121.03;15276612;19;20430;-54
2023/05/02 16:50:54;;;;;;;6.45;2.53;;;;;;;10.16;100.00;99136.78;15276847;19;20018;-49
2023/05/02 16:56:20;;;;;;;6.47;2.38;;;;;;;10.02;100.00;99134.50;15278192;19;20022;-55
2023/05/02 17:01:46;;;;;;;4.93;2.10;;;;;;;9.64;100.00;99145.03;15277164;19;20077;-52
2023/05/02 17:07:13;;;;;;;5.05;2.40;;;;;;;9.52;100.00;99148.84;15278025;19;20031;-48
2023/05/02 17:12:40;;;;;;;5.65;2.50;;;;;;;9.34;100.00;99159.38;15273241;19;20053;-48
2023/05/02 17:18:06;;;;;;;7.65;2.63;;;;;;;9.16;100.00;99168.06;15278041;19;20010;-47
2023/05/02 17:23:34;;;;;;;5.60;2.60;;;;;;;8.99;100.00;99169.53;15273087;19;20015;-47
2023/05/02 17:29:00;;;;;;;4.47;2.47;;;;;;;8.83;100.00;99174.53;15279072;19;20038;-50
2023/05/02 17:34:27;;;;;;;4.57;2.47;;;;;;;8.76;100.00;99195.72;15270671;19;20031;-51
2023/05/02 17:39:55;;;;;;;8.52;2.58;;;;;;;8.75;100.00;99204.75;15275029;19;20007;-50
2023/05/02 17:45:20;;;;;;;6.25;2.92;;;;;;;8.73;100.00;99201.34;15263856;19;20017;-48
2023/05/02 17:50:47;;;;;;;4.47;2.65;;;;;;;8.82;100.00;99205.91;15259051;19;20082;-51
2023/05/02 17:56:17;;;;;;;4.93;2.50;;;;;;;8.87;100.00;99210.91;15265304;19;20542;-46
2023/05/02 18:01:41;;;;;;;5.60;2.47;;;;;;;8.94;100.00;99209.38;15273344;19;20020;-46
2023/05/02 18:07:01;;;;;;;6.13;2.60;;;;;;;9.01;100.00;99215.09;15267453;19;20269;-46
2023/05/02 18:12:30;;;;;;;4.28;2.40;;;;;;;9.03;100.00;99226.56;15271622;19;20081;-46
2023/05/02 18:17:55;;;;;;;3.08;2.28;;;;;;;9.08;100.00;99224.34;15261191;19;20517;-46
2023/05/02 18:23:20;;;;;;;3.97;2.30;;;;;;;9.10;100.00;99235.81;15269544;19;20011;-51
2023/05/02 18:28:51;;;;;;;6.57;2.28;;;;;;;9.12;100.00;99233.84;15267101;19;20017;-50
2023/05/02 18:34:16;;;;;;;2.83;2.30;;;;;;;9.12;100.00;99227.63;15267351;19;20022;-47
2023/05/02 18:39:42;;;;;;;3.58;2.13;;;;;;;9.12;100.00;99233.00;15271328;19;20021;-46
2023/05/02 18:45:17;;;;;;;3.22;1.90;;;;;;;9.12;100.00;99243.75;15266685;19;20014;-45
2023/05/02 18:50:43;;;;;;;4.47;2.10;;;;;;;9.14;100.00;99242.63;15262216;19;20017;-46
2023/05/02 18:56:09;;;;;;;3.65;2.08;;;;;;;9.12;100.00;99246.44;15262257;19;20003;-45
2023/05/02 19:01:37;;;;;;;3.47;1.90;;;;;;;9.10;100.00;99247.41;15267865;19;20017;-49
2023/05/02 19:07:01;;;;;;;5.68;2.58;;;;;;;9.11;100.00;99256.34;15263894;19;20374;-49
2023/05/02 19:12:26;;;;;;;6.18;2.22;;;;;;;9.10;100.00;99266.22;15268870;19;20015;-45
2023/05/02 19:17:55;;;;;;;7.35;2.25;;;;;;;9.08;100.00;99264.66;15264801;19;20014;-47
2023/05/02 19:23:14;;;;;;;4.80;1.95;;;;;;;9.01;100.00;99268.84;15264529;19;20258;-50
2023/05/02 19:28:39;;;;;;;3.45;1.77;;;;;;;9.02;100.00;99270.56;15256248;19;20514;-47
2023/05/02 19:34:06;;;;;;;5.45;2.15;;;;;;;8.97;100.00;99278.16;15265625;19;20018;-48
2023/05/02 19:39:31;;;;;;;3.65;1.70;;;;;;;8.99;100.00;99284.28;15266232;19;20797;-48
2023/05/02 19:44:57;;;;;;;4.35;1.83;;;;;;;8.95;100.00;99286.34;15265757;19;20182;-48
2023/05/02 19:50:27;;;;;;;5.03;2.08;;;;;;;9.00;100.00;99291.31;15265705;19;20015;-46
2023/05/02 19:55:52;;;;;;;2.45;1.70;;;;;;;9.00;100.00;99299.38;15259521;19;20006;-46
2023/05/02 20:01:17;;;;;;;3.85;1.80;;;;;;;8.94;100.00;99293.56;15273527;19;20086;-52
2023/05/02 20:06:45;;;;;;;3.95;1.80;;;;;;;8.94;100.00;99307.00;15279705;19;20025;-48
2023/05/02 20:12:09;;;;;;;4.45;1.65;;;;;;;8.99;100.00;99305.78;15282031;19;20573;-47
2023/05/02 20:17:33;;;;;;;3.30;1.55;;;;;;;8.99;100.00;99308.47;15277843;19;20021;-49
2023/05/02 20:23:01;;;;;;;9.20;2.00;;;;;;;9.00;100.00;99308.31;15282973;19;20011;-47
2023/05/02 20:28:26;;;;;;;5.40;1.77;;;;;;;9.01;100.00;99311.84;15274692;19;20020;-47
2023/05/02 20:33:51;;;;;;;3.83;1.90;;;;;;;9.03;100.00;99318.81;15281368;19;20082;-47
2023/05/02 20:39:20;;;;;;;6.40;2.25;;;;;;;8.98;100.00;99322.88;15280557;19;20010;-49
2023/05/02 20:44:48;;;;;;;9.23;1.92;;;;;;;8.90;100.00;99324.34;15281318;19;20015;-47
2023/05/02 20:50:20;;;;;;;4.50;1.90;;;;;;;8.83;100.00;99331.25;15281990;19;20750;-51
2023/05/02 20:55:48;;;;;;;4.40;2.00;;;;;;;8.74;100.00;99332.00;15271397;19;20387;-46
2023/05/02 21:01:13;;;;;;;3.80;1.70;;;;;;;8.67;100.00;99344.22;15278068;19;20418;-46
2023/05/02 21:06:38;;;;;;;5.70;1.95;;;;;;;8.73;100.00;99336.50;15273979;19;20482;-45
2023/05/02 21:12:06;;;;;;;3.70;1.60;;;;;;;8.63;100.00;99335.56;15279610;19;20022;-45
2023/05/02 21:17:31;;;;;;;4.45;1.77;;;;;;;8.55;100.00;99333.50;15269895;19;20025;-45
2023/05/02 21:22:56;;;;;;;3.95;1.67;;;;;;;8.40;100.00;99340.13;15277929;19;20029;-44
2023/05/02 21:28:23;;;;;;;2.90;1.30;;;;;;;8.20;100.00;99337.19;15267968;19;20029;-44
2023/05/02 21:33:55;;;;;;;2.88;1.20;;;;;;;8.15;100.00;99331.38;15275315;19;20014;-44
2023/05/02 21:39:20;;;;;;;2.50;1.23;;;;;;;8.10;100.00;99331.72;15275181;19;20014;-44
2023/05/02 21:44:48;;;;;;;2.63;1.10;;;;;;;8.01;100.00;99333.31;15276004;19;20034;-46
2023/05/02 21:50:20;;;;;;;1.60;0.98;;;;;;;7.90;100.00;99333.31;15276159;19;20454;-48
2023/05/02 21:55:45;;;;;;;1.70;0.90;;;;;;;7.92;100.00;99339.41;15271401;19;20014;-45
2023/05/02 22:01:13;;;;;;;3.05;1.00;;;;;;;7.86;100.00;99334.53;15270324;19;20090;-48
2023/05/02 22:06:37;;;;;;;1.33;0.80;;;;;;;7.82;100.00;99333.09;15270489;19;20022;-46
2023/05/02 22:12:02;;;;;;;2.45;0.80;;;;;;;7.75;100.00;99337.19;15277538;19;20036;-45
2023/05/02 22:17:30;;;;;;;2.20;0.90;;;;;;;7.68;100.00;99336.81;15270142;19;20557;-47
2023/05/02 22:22:56;;;;;;;3.05;0.90;;;;;;;7.63;100.00;99350.59;15273789;19;20389;-45
2023/05/02 22:28:21;;;;;;;2.60;0.90;;;;;;;7.63;100.00;99355.97;15269116;19;20050;-47
2023/05/02 22:33:50;;;;;;;4.28;1.00;;;;;;;7.45;100.00;99366.28;15266597;19;20303;-49
2023/05/02 22:39:16;;;;;;;3.53;0.90;;;;;;;7.43;100.00;99367.38;15268104;19;20475;-48
2023/05/02 22:44:40;;;;;;;1.92;0.73;;;;;;;7.45;100.00;99368.97;15271270;19;20021;-49
2023/05/02 22:50:21;;;;;;;2.80;0.93;;;;;;;7.37;100.00;99371.38;15271555;19;20376;-49
2023/05/02 22:55:45;;;;;;;2.45;0.85;;;;;;;7.34;100.00;99377.84;15269356;19;20123;-45
2023/05/02 23:01:10;;;;;;;1.85;0.90;;;;;;;7.29;100.00;99380.00;15268724;19;20018;-46
2023/05/02 23:06:38;;;;;;;2.55;0.90;;;;;;;7.26;100.00;99390.97;15262336;19;20015;-44
2023/05/02 23:12:04;;;;;;;2.95;0.90;;;;;;;7.24;100.00;99387.53;15268508;19;20027;-45
2023/05/02 23:17:29;;;;;;;2.47;0.80;;;;;;;7.20;100.00;99384.25;15263987;19;20358;-47
2023/05/02 23:22:57;;;;;;;2.90;0.90;;;;;;;7.20;100.00;99394.13;15269705;19;20406;-45
2023/05/02 23:28:22;;;;;;;2.30;1.00;;;;;;;7.09;100.00;99387.75;15264421;19;20077;-47
2023/05/02 23:33:48;;;;;;;2.85;0.93;;;;;;;7.11;100.00;99401.03;15269030;19;20651;-46
2023/05/02 23:39:16;;;;;;;2.83;1.00;;;;;;;7.06;100.00;99398.69;15271781;19;20024;-44
2023/05/02 23:44:42;;;;;;;3.42;0.93;;;;;;;7.11;100.00;99400.19;15281522;19;20022;-44
2023/05/02 23:50:16;;;;;;;1.60;0.80;;;;;;;7.11;100.00;99397.50;15268417;19;20027;-45
2023/05/02 23:55:50;;;;;;;2.63;1.05;;;;;;;7.05;100.00;99404.16;15278457;19;20015;-45
